Data for 02/01/2007

Time Sea-Level Adjusted Pressure Absolute Pressure Temperature Relative Humidity Dew Point   
(mb) (inHg) (mb) (inHg) (C) (F) (%) (C) (F)
00:05 1012 29.88 841 24.83 -6.7 20 86 -8.6 16.6
00:10 1012 29.88 841 24.83 -6.6 20.1 87 -8.4 16.9
00:15 1012 29.88 841 24.83 -6.6 20.1 88 -8.3 17.1
00:20 1012 29.88 841 24.83 -6.7 20 88 -8.4 17
00:25 1012 29.88 841 24.83 -6.6 20 89 -8.2 17.2
00:30 1012 29.88 841 24.83 -6.7 20 88 -8.3 17.1
00:35 1012 29.88 841 24.83 -6.6 20.1 88 -8.2 17.2
00:40 1012 29.88 841 24.83 -6.6 20 88 -8.3 17.1
00:45 1012 29.88 841 24.83 -6.6 20.1 88 -8.3 17
00:50 1012 29.88 841 24.83 -6.7 20 88 -8.3 17
00:55 1012 29.88 841 24.83 -6.7 19.9 89 -8.3 17
01:00 1012 29.88 841 24.83 -6.8 19.8 89 -8.3 17.1
01:05 1012 29.88 841 24.83 -6.8 19.7 89 -8.3 17.1
01:10 1012 29.88 841 24.83 -6.9 19.5 90 -8.4 16.9
01:15 1012 29.88 841 24.83 -7 19.3 90 -8.5 16.8
01:20 1012 29.88 841 24.83 -7.1 19.3 89 -8.6 16.5
01:25 1012 29.88 841 24.83 -7.2 19.1 89 -8.7 16.4
01:30 1012 29.88 841 24.83 -7.4 18.6 90 -8.8 16.2
01:35 1012 29.88 841 24.83 -7.5 18.5 90 -8.9 16.1
01:40 1012 29.88 841 24.83 -7.5 18.5 90 -8.9 16.1
01:45 1012 29.88 841 24.83 -7.6 18.4 90 -8.9 15.9
01:50 1012 29.88 841 24.83 -7.4 18.6 90 -8.8 16.1
01:55 1012 29.88 841 24.83 -7.3 18.9 89 -8.8 16.1
02:00 1012 29.88 842 24.86 -7.3 18.9 87 -9.1 15.7
02:05 1012 29.88 842 24.86 -7.3 18.9 87 -9.1 15.7
02:10 1012 29.88 842 24.86 -7.2 19 87 -9.1 15.6
02:15 1012 29.88 842 24.86 -7.4 18.8 87 -9.1 15.6
02:20 1013 29.91 842 24.86 -7.4 18.7 87 -9.3 15.3
02:25 1013 29.91 842 24.86 -7.4 18.8 86 -9.3 15.3
02:30 1013 29.91 842 24.86 -7.4 18.7 86 -9.3 15.2
02:35 1013 29.91 842 24.86 -7.5 18.6 85 -9.5 14.8
02:40 1013 29.91 842 24.86 -7.4 18.6 83 -9.8 14.4
02:45 1013 29.91 842 24.86 -7.5 18.5 83 -9.9 14.3
02:50 1013 29.91 842 24.86 -7.4 18.6 83 -9.9 14.2
02:55 1013 29.91 842 24.86 -7.5 18.6 83 -9.8 14.3
03:00 1013 29.91 842 24.86 -7.5 18.5 83 -9.9 14.1
03:05 1013 29.91 842 24.86 -7.5 18.5 83 -9.9 14.2
03:10 1013 29.91 842 24.86 -7.5 18.5 83 -10 14
03:15 1013 29.91 842 24.86 -7.5 18.5 82 -10 13.9
03:20 1013 29.91 842 24.86 -7.5 18.5 82 -10.1 13.8
03:25 1013 29.91 842 24.86 -7.5 18.4 81 -10.2 13.7
03:30 1013 29.91 842 24.86 -7.7 18.2 82 -10.2 13.6
03:35 1013 29.91 842 24.86 -7.7 18.2 81 -10.4 13.3
03:40 1013 29.91 842 24.86 -7.9 17.8 82 -10.4 13.3
03:45 1013 29.91 842 24.86 -7.9 17.9 82 -10.4 13.3
03:50 1013 29.91 843 24.89 -7.9 17.8 82 -10.4 13.3
03:55 1013 29.91 843 24.89 -8 17.6 82 -10.5 13.1
04:00 1013 29.91 843 24.89 -8.1 17.5 83 -10.5 13.1
04:05 1013 29.91 843 24.89 -8.1 17.4 82 -10.6 13
04:10 1013 29.91 843 24.89 -8 17.5 82 -10.6 12.9
04:15 1013 29.91 843 24.89 -8 17.6 81 -10.8 12.6
04:20 1013 29.91 843 24.89 -7.8 18 79 -10.8 12.6
04:25 1013 29.91 843 24.89 -7.8 18 79 -10.8 12.6
04:30 1014 29.94 843 24.89 -7.8 18 80 -10.7 12.7
04:35 1014 29.94 843 24.89 -7.8 18 80 -10.7 12.8
04:40 1014 29.94 843 24.89 -7.8 18 80 -10.7 12.8
04:45 1014 29.94 843 24.89 -7.9 17.8 80 -10.7 12.7
04:50 1014 29.94 843 24.89 -8 17.6 81 -10.7 12.7
04:55 1014 29.94 843 24.89 -8.1 17.5 81 -10.7 12.7
05:00 1014 29.94 843 24.89 -8.1 17.4 82 -10.7 12.8
05:05 1014 29.94 843 24.89 -8.1 17.4 82 -10.7 12.7
05:10 1014 29.94 843 24.89 -8.2 17.3 82 -10.8 12.6
05:15 1014 29.94 843 24.89 -8.1 17.4 82 -10.8 12.6
05:20 1014 29.94 843 24.89 -8.1 17.5 81 -10.8 12.6
05:25 1014 29.94 843 24.89 -8.1 17.4 81 -10.9 12.4
05:30 1014 29.94 843 24.89 -8.2 17.3 80 -11 12.2
05:35 1014 29.94 843 24.89 -8.1 17.4 80 -11 12.2
05:40 1014 29.94 843 24.89 -8.3 17.1 79 -11.2 11.8
05:45 1014 29.94 843 24.89 -8.3 17 79 -11.3 11.6
05:50 1014 29.94 843 24.89 -8.4 16.8 79 -11.4 11.5
05:55 1014 29.94 843 24.89 -8.4 16.8 79 -11.5 11.4
06:00 1014 29.94 843 24.89 -8.5 16.7 79 -11.5 11.2
06:05 1014 29.94 843 24.89 -8.6 16.5 79 -11.6 11
06:10 1014 29.94 843 24.89 -8.8 16.2 80 -11.6 11.1
06:15 1014 29.94 844 24.92 -8.9 16 80 -11.7 10.9
06:20 1014 29.94 844 24.92 -8.9 16 80 -11.7 10.9
06:25 1015 29.97 844 24.92 -8.8 16.3 79 -11.7 11
06:30 1015 29.97 844 24.92 -8.7 16.4 79 -11.7 10.9
06:35 1015 29.97 844 24.92 -8.7 16.4 77 -12 10.4
06:40 1015 29.97 844 24.92 -9.3 15.2 80 -12.2 10
06:45 1015 29.97 844 24.92 -9.6 14.8 81 -12.3 9.9
06:50 1015 29.97 844 24.92 -9.2 15.4 80 -12.1 10.3
06:55 1014 29.94 844 24.92 -9.1 15.6 80 -12 10.3
07:00 1015 29.97 844 24.92 -8.9 16 79 -11.9 10.6
07:05 1015 29.97 844 24.92 -8.7 16.3 78 -11.9 10.6
07:10 1015 29.97 844 24.92 -8.7 16.3 78 -11.9 10.6
07:15 1015 29.97 844 24.92 -8.8 16.2 79 -11.9 10.7
07:20 1015 29.97 844 24.92 -8.9 16 79 -11.9 10.5
07:25 1015 29.97 844 24.92 -8.9 15.9 79 -11.9 10.5
07:30 1015 29.97 844 24.92 -9 15.9 80 -11.9 10.6
07:35 1015 29.97 844 24.92 -9 15.9 80 -11.8 10.7
07:40 1015 29.97 844 24.92 -9 15.8 79 -12 10.5
07:45 1015 29.97 844 24.92 -8.9 15.9 79 -12 10.4
07:50 1015 29.97 844 24.92 -9 15.8 79 -11.9 10.5
07:55 1015 29.97 844 24.92 -9.5 14.9 82 -12.1 10.2
08:00 1015 29.97 844 24.92 -9.5 15 81 -12.2 10.1
08:05 1015 29.97 844 24.92 -9.2 15.5 81 -11.8 10.7
08:10 1015 29.97 844 24.92 -9 15.7 82 -11.6 11.1
08:15 1015 29.97 844 24.92 -9 15.8 83 -11.4 11.4
08:20 1015 29.97 844 24.92 -9 15.9 83 -11.3 11.6
08:25 1015 29.97 844 24.92 -9 15.8 85 -11.1 12.1
08:30 1015 29.97 844 24.92 -9 15.9 85 -11.1 12.1
08:35 1015 29.97 844 24.92 -8.9 16 84 -11 12.1
08:40 1015 29.97 844 24.92 -8.8 16.2 84 -11 12.1
08:45 1015 29.97 844 24.92 -8.7 16.3 82 -11.3 11.7
08:50 1015 29.97 844 24.92 -8.6 16.6 81 -11.2 11.8
08:55 1015 29.97 844 24.92 -8.5 16.7 80 -11.3 11.6
09:00 1015 29.97 845 24.95 -8.6 16.5 81 -11.3 11.7
09:05 1015 29.97 845 24.95 -8.8 16.3 80 -11.6 11.2
09:10 1016 30 845 24.95 -8.9 16.1 81 -11.6 11.2
09:15 1016 30 845 24.95 -9.1 15.7 83 -11.4 11.4
09:20 1016 30 845 24.95 -9.1 15.6 85 -11.2 11.8
09:25 1016 30 845 24.95 -9.3 15.2 86 -11.3 11.7
09:30 1016 30 845 24.95 -9.6 14.8 89 -11 12.2
09:35 1016 30 845 24.95 -9.3 15.2 87 -11.2 11.9
09:40 1016 30 845 24.95 -9.5 14.9 79 -12.4 9.6
09:45 1016 30 845 24.95 -9.7 14.5 78 -12.8 9
09:50 1016 30 845 24.95 -9.6 14.8 78 -12.8 9
09:55 1016 30 845 24.95 -9.4 15.1 76 -13 8.7
10:00 1016 30 846 24.98 -9.5 14.9 70 -14 6.8
10:05 1016 30 846 24.98 -9.5 14.9 65 -14.9 5.2
10:10 1017 30.03 846 24.98 -9.3 15.3 62 -15.3 4.4
10:15 1017 30.03 846 24.98 -9.3 15.2 59 -15.9 3.4
10:20 1017 30.03 846 24.98 -9.8 14.4 66 -15 4.9
10:25 1017 30.03 846 24.98 -9.7 14.6 65 -15.1 4.8
10:30 1017 30.03 846 24.98 -9.8 14.3 61 -16 3.2
10:35 1017 30.03 847 25.01 -10.5 13 59 -17 1.4
10:40 1018 30.06 847 25.01 -10.7 12.8 56 -17.8 0
10:45 1018 30.06 847 25.01 -10.7 12.7 54 -18.3 -0.9
10:50 1018 30.06 847 25.01 -10.7 12.7 53 -18.6 -1.5
10:55 1018 30.06 848 25.04 -10.8 12.5 51 -19.1 -2.3
11:00 1018 30.06 848 25.04 -11.1 12.1 48 -20.1 -4.1
11:05 1019 30.09 848 25.04 -11 12.2 47 -20.2 -4.4
11:10 1019 30.09 848 25.04 -11 12.3 45 -20.7 -5.2
11:15 1019 30.09 848 25.04 -11.3 11.6 45 -21 -5.8
11:20 1019 30.09 848 25.04 -11.6 11.1 48 -20.6 -5
11:25 1019 30.09 848 25.04 -11.6 11.1 46 -21.1 -5.9
11:30 1019 30.09 849 25.07 -11.7 10.9 46 -21.2 -6.1
11:35 1019 30.09 849 25.07 -11.9 10.6 45 -21.5 -6.7
11:40 1019 30.09 849 25.07 -11.8 10.7 44 -21.9 -7.4
11:45 1019 30.09 849 25.07 -11.6 11.1 44 -21.5 -6.7
11:50 1019 30.09 849 25.07 -11.6 11.2 43 -21.7 -7.1
11:55 1019 30.09 849 25.07 -11.4 11.4 44 -21.4 -6.6
12:00 1019 30.09 849 25.07 -11 12.1 44 -21.1 -6
12:05 1019 30.09 848 25.04 -11.2 11.9 44 -21.3 -6.3
12:10 1019 30.09 848 25.04 -11.7 11 44 -21.6 -6.9
12:15 1019 30.09 849 25.07 -11.8 10.8 45 -21.4 -6.6
12:20 1019 30.09 848 25.04 -11.7 11 43 -21.9 -7.5
12:25 1019 30.09 849 25.07 -11.8 10.8 42 -22.2 -8
12:30 1019 30.09 849 25.07 -12.1 10.3 41 -22.9 -9.3
12:35 1019 30.09 849 25.07 -12.4 9.6 41 -23.2 -9.8
12:40 1020 30.12 849 25.07 -12.6 9.3 41 -23.2 -9.8
12:45 1020 30.12 849 25.07 -12.6 9.3 40 -23.5 -10.3
12:50 1020 30.12 849 25.07 -12.8 8.9 41 -23.6 -10.5
12:55 1020 30.12 849 25.07 -13.1 8.3 41 -23.9 -10.9
13:00 1020 30.12 849 25.07 -13.4 8 40 -24.2 -11.5
13:05 1020 30.12 849 25.07 -13.3 8 41 -24.1 -11.4
13:10 1020 30.12 849 25.07 -13.5 7.8 39 -24.6 -12.3
13:15 1020 30.12 849 25.07 -13.4 7.9 38 -25 -12.9
13:20 1020 30.12 849 25.07 -12.9 8.7 37 -24.7 -12.4
13:25 1020 30.12 849 25.07 -13.2 8.2 35 -25.8 -14.4
13:30 1020 30.12 849 25.07 -13.2 8.2 36 -25.3 -13.5
13:35 1020 30.12 849 25.07 -13.3 8 36 -25.3 -13.6
13:40 1020 30.12 849 25.07 -13.2 8.3 36 -25.3 -13.5
13:45 1020 30.12 849 25.07 -13 8.6 38 -24.6 -12.3
13:50 1020 30.12 850 25.1 -12.7 9.1 38 -24.4 -11.9
13:55 1020 30.12 850 25.1 -12.8 9 34 -25.5 -13.8
14:00 1020 30.12 850 25.1 -13.3 8.1 38 -24.8 -12.7
14:05 1020 30.12 849 25.07 -13 8.6 36 -25.3 -13.5
14:10 1020 30.12 849 25.07 -12.5 9.4 34 -25.3 -13.6
14:15 1020 30.12 849 25.07 -11.8 10.7 33 -25.1 -13.1
14:20 1020 30.12 849 25.07 -12.6 9.4 34 -25.3 -13.5
14:25 1020 30.12 849 25.07 -12.7 9.1 33 -26 -14.7
14:30 1020 30.12 849 25.07 -12.6 9.2 32 -26.3 -15.4
14:35 1020 30.12 849 25.07 -12.4 9.7 32 -25.8 -14.5
14:40 1020 30.12 849 25.07 -12.4 9.8 33 -25.7 -14.3
14:45 1020 30.12 849 25.07 -12.2 10.1 32 -25.7 -14.3
14:50 1020 30.12 849 25.07 -11.9 10.6 29 -26.7 -16
14:55 1020 30.12 849 25.07 -12.1 10.1 28 -27.2 -17
15:00 1020 30.12 849 25.07 -12.4 9.7 27 -27.7 -17.9
15:05 1020 30.12 849 25.07 -12.7 9.2 27 -28.2 -18.7
15:10 1020 30.12 849 25.07 -12.6 9.3 28 -27.8 -18
15:15 1020 30.12 849 25.07 -12.7 9.2 30 -27.1 -16.7
15:20 1020 30.12 849 25.07 -12.8 9 29 -27.3 -17.1
15:25 1020 30.12 849 25.07 -12.8 8.9 29 -27.4 -17.3
15:30 1020 30.12 849 25.07 -13 8.6 29 -27.4 -17.4
15:35 1020 30.12 849 25.07 -13 8.6 30 -27.1 -16.8
15:40 1020 30.12 849 25.07 -13.1 8.4 32 -26.7 -16.1
15:45 1020 30.12 849 25.07 -13.1 8.5 29 -27.5 -17.5
15:50 1020 30.12 849 25.07 -13 8.6 31 -26.9 -16.3
15:55 1020 30.12 849 25.07 -13 8.6 31 -26.8 -16.2
16:00 1020 30.12 849 25.07 -12.9 8.8 31 -26.9 -16.4
16:05 1020 30.12 849 25.07 -12.9 8.9 30 -26.9 -16.5
16:10 1020 30.12 849 25.07 -12.9 8.9 29 -27.4 -17.3
16:15 1020 30.12 849 25.07 -13.1 8.3 29 -27.7 -17.8
16:20 1020 30.12 849 25.07 -13.2 8.3 30 -27.4 -17.3
16:25 1020 30.12 849 25.07 -13.1 8.4 31 -27.1 -16.8
16:30 1020 30.12 849 25.07 -13.2 8.2 30 -27.3 -17.2
16:35 1020 30.12 849 25.07 -13.2 8.3 31 -27.2 -16.9
16:40 1020 30.12 849 25.07 -13.2 8.2 31 -27 -16.6
16:45 1020 30.12 849 25.07 -13.4 8 31 -27.2 -16.9
16:50 1020 30.12 849 25.07 -13.5 7.8 31 -27.3 -17.1
16:55 1020 30.12 849 25.07 -13.5 7.6 31 -27.2 -17
17:00 1020 30.12 849 25.07 -13.8 7.3 32 -27.2 -17
17:05 1020 30.12 849 25.07 -14.1 6.7 33 -27 -16.6
17:10 1020 30.12 849 25.07 -14.6 5.8 35 -27 -16.7
17:15 1020 30.12 849 25.07 -14.9 5.2 36 -27 -16.6
17:20 1020 30.12 849 25.07 -15 5 38 -26.5 -15.6
17:25 1020 30.12 849 25.07 -15.1 4.9 38 -26.5 -15.8
17:30 1020 30.12 849 25.07 -15.3 4.6 38 -26.7 -16.1
17:35 1020 30.12 849 25.07 -15.4 4.2 38 -26.7 -16
17:40 1020 30.12 849 25.07 -15.5 4.1 39 -26.6 -15.9
17:45 1020 30.12 849 25.07 -15.7 3.8 39 -26.8 -16.3
17:50 1020 30.12 849 25.07 -16.8 1.8 43 -26.6 -15.9
17:55 1020 30.12 849 25.07 -17.1 1.1 42 -27.3 -17.1
18:00 1020 30.12 849 25.07 -16.9 1.6 44 -26.6 -15.8
18:05 1020 30.12 849 25.07 -16.7 2 42 -26.8 -16.3
18:10 1020 30.12 849 25.07 -16.6 2.2 42 -26.6 -15.9
18:15 1020 30.12 849 25.07 -17.5 0.5 42 -27.6 -17.7
18:20 1020 30.12 849 25.07 -17.9 -0.1 43 -27.6 -17.6
18:25 1020 30.12 849 25.07 -17.2 1 42 -27.1 -16.9
18:30 1020 30.12 849 25.07 -17 1.4 43 -26.8 -16.2
18:35 1020 30.12 849 25.07 -17 1.4 44 -26.4 -15.6
18:40 1020 30.12 849 25.07 -17 1.4 47 -25.9 -14.7
18:45 1020 30.12 849 25.07 -17.4 0.6 47 -26.3 -15.3
18:50 1020 30.12 849 25.07 -19.2 -2.5 58 -25.4 -13.8
18:55 1020 30.12 849 25.07 -19.8 -3.6 63 -25.2 -13.3
19:00 1020 30.12 849 25.07 -19.3 -2.7 62 -24.8 -12.6
19:05 1020 30.12 849 25.07 -18.8 -1.9 59 -25 -13
19:10 1019 30.09 849 25.07 -18.9 -2 58 -25.3 -13.5
19:15 1019 30.09 849 25.07 -19.8 -3.6 62 -25.4 -13.6
19:20 1019 30.09 848 25.04 -20.2 -4.3 62 -25.7 -14.2
19:25 1019 30.09 848 25.04 -20.8 -5.4 65 -25.8 -14.5
19:30 1019 30.09 848 25.04 -20.9 -5.6 65 -25.8 -14.4
19:35 1019 30.09 848 25.04 -20.8 -5.4 64 -25.9 -14.6
19:40 1019 30.09 848 25.04 -20.5 -4.9 63 -25.8 -14.5
19:45 1019 30.09 848 25.04 -20.4 -4.6 63 -25.6 -14.2
19:50 1019 30.09 848 25.04 -20.4 -4.8 63 -25.8 -14.5
19:55 1019 30.09 848 25.04 -20.6 -5.1 62 -26.2 -15.1
20:00 1019 30.09 848 25.04 -21.2 -6.1 64 -26.3 -15.3
20:05 1019 30.09 848 25.04 -21.3 -6.3 63 -26.5 -15.7
20:10 1019 30.09 848 25.04 -21.1 -5.9 64 -26.2 -15.1
20:15 1019 30.09 848 25.04 -21.1 -5.9 64 -26.1 -15
20:20 1019 30.09 848 25.04 -21 -5.9 62 -26.5 -15.7
20:25 1019 30.09 848 25.04 -21.1 -6.1 63 -26.4 -15.5
20:30 1019 30.09 848 25.04 -21.1 -6 64 -26.3 -15.4
20:35 1019 30.09 848 25.04 -21 -5.9 63 -26.3 -15.4
20:40 1019 30.09 848 25.04 -21 -5.8 60 -26.9 -16.5
20:45 1019 30.09 848 25.04 -21.4 -6.5 61 -27.1 -16.7
20:50 1019 30.09 848 25.04 -21.7 -7 63 -27 -16.6
20:55 1019 30.09 848 25.04 -21.9 -7.4 63 -27.1 -16.8
21:00 1019 30.09 848 25.04 -21.9 -7.4 63 -27.2 -16.9
21:05 1019 30.09 848 25.04 -21.6 -6.9 61 -27.2 -17
21:10 1018 30.06 848 25.04 -21.3 -6.4 59 -27.4 -17.3
21:15 1018 30.06 848 25.04 -21.2 -6.1 59 -27.2 -17
21:20 1018 30.06 848 25.04 -21.1 -6 57 -27.5 -17.5
21:25 1018 30.06 848 25.04 -21 -5.7 58 -27.2 -16.9
21:30 1018 30.06 847 25.01 -21 -5.9 57 -27.4 -17.3
21:35 1018 30.06 847 25.01 -21 -5.8 56 -27.6 -17.7
21:40 1018 30.06 847 25.01 -20.9 -5.7 55 -27.7 -17.8
21:45 1018 30.06 847 25.01 -21 -5.8 57 -27.3 -17.2
21:50 1018 30.06 847 25.01 -21 -5.8 55 -27.8 -18.1
21:55 1018 30.06 847 25.01 -20.8 -5.5 56 -27.5 -17.5
22:00 1018 30.06 847 25.01 -21 -5.8 58 -27.2 -17
22:05 1018 30.06 847 25.01 -21.1 -6 59 -27.2 -16.9
22:10 1018 30.06 847 25.01 -21 -5.7 58 -27.2 -16.9
22:15 1018 30.06 847 25.01 -20.8 -5.5 57 -27.2 -16.9
22:20 1018 30.06 847 25.01 -20.8 -5.4 58 -27.1 -16.7
22:25 1018 30.06 847 25.01 -20.7 -5.3 58 -27 -16.5
22:30 1018 30.06 847 25.01 -20.7 -5.3 57 -27.1 -16.7
22:35 1018 30.06 847 25.01 -20.8 -5.4 59 -26.8 -16.2
22:40 1018 30.06 847 25.01 -20.9 -5.6 58 -27.2 -16.9
22:45 1017 30.03 847 25.01 -20.9 -5.6 59 -26.9 -16.4
22:50 1017 30.03 847 25.01 -20.5 -4.8 57 -26.9 -16.4
22:55 1018 30.06 847 25.01 -20.2 -4.3 55 -27.1 -16.8
23:00 1018 30.06 847 25.01 -20.6 -5 57 -27 -16.6
23:05 1017 30.03 847 25.01 -20.8 -5.4 58 -27 -16.6
23:10 1017 30.03 847 25.01 -20.7 -5.2 57 -27.1 -16.7
23:15 1017 30.03 846 24.98 -21 -5.8 58 -27.2 -16.9
23:20 1017 30.03 846 24.98 -20.7 -5.3 58 -26.9 -16.4
23:25 1017 30.03 846 24.98 -20.8 -5.4 60 -26.7 -16
23:30 1017 30.03 846 24.98 -20.7 -5.3 60 -26.7 -16
23:35 1017 30.03 846 24.98 -20.4 -4.8 60 -26.3 -15.4
23:40 1017 30.03 846 24.98 -20.2 -4.3 61 -26 -14.7
23:45 1017 30.03 846 24.98 -19.6 -3.3 59 -25.8 -14.4
23:50 1017 30.03 846 24.98 -19.1 -2.3 57 -25.6 -14
23:55 1017 30.03 846 24.98 -18.8 -1.8 55 -25.7 -14.3
24:00 1017 30.03 846 24.98 -18.8 -1.9 58 -25.1 -13.3